createdAt,value
2023-01-27T00:00:29.684Z,93907.75
2023-01-27T00:02:56.465Z,93905.31
2023-01-27T00:05:24.033Z,93901.13
2023-01-27T00:07:50.606Z,93903.53
2023-01-27T00:10:19.846Z,93902.22
2023-01-27T00:13:06.108Z,93905.28
2023-01-27T00:15:34.557Z,93896.66
2023-01-27T00:18:01.673Z,93904.66
2023-01-27T00:20:47.245Z,93900.38
2023-01-27T00:23:41.189Z,93904.72
2023-01-27T00:26:10.180Z,93906.75
2023-01-27T00:28:37.934Z,93897.09
2023-01-27T00:31:05.076Z,93893.53
2023-01-27T00:33:32.097Z,93895.44
2023-01-27T00:35:59.956Z,93895.28
2023-01-27T00:38:28.134Z,93902.66
2023-01-27T00:41:13.903Z,93891.97
2023-01-27T00:43:40.571Z,93901.66
2023-01-27T00:46:07.825Z,93888.91
2023-01-27T00:48:34.725Z,93895.69
2023-01-27T00:51:01.755Z,93899.97
2023-01-27T00:53:28.680Z,93906.56
2023-01-27T00:55:55.390Z,93889.78
2023-01-27T00:58:22.592Z,93910.06
2023-01-27T01:00:49.496Z,93902.03
2023-01-27T01:03:16.382Z,93898.78
2023-01-27T01:05:43.118Z,93897.03
2023-01-27T01:08:09.861Z,93902.78
2023-01-27T01:10:38.877Z,93903.47
2023-01-27T01:13:08.132Z,93895.91
2023-01-27T01:15:38.920Z,93904.00
2023-01-27T01:18:06.141Z,93913.72
2023-01-27T01:20:37.686Z,93909.25
2023-01-27T01:23:05.364Z,93908.22
2023-01-27T01:25:32.196Z,93902.34
2023-01-27T01:27:58.940Z,93898.56
2023-01-27T01:30:27.512Z,93892.69
2023-01-27T01:32:54.898Z,93895.81
2023-01-27T01:35:22.816Z,93895.50
2023-01-27T01:37:49.564Z,93891.09
2023-01-27T01:40:16.259Z,93880.25
2023-01-27T01:42:57.800Z,93888.38
2023-01-27T01:45:33.928Z,93894.22
2023-01-27T01:48:04.999Z,93893.59
2023-01-27T01:50:32.210Z,93891.47
2023-01-27T01:53:00.255Z,93879.41
2023-01-27T01:55:27.275Z,93885.63
2023-01-27T01:57:54.201Z,93883.41
2023-01-27T02:00:20.937Z,93886.66
2023-01-27T02:02:48.786Z,93875.91
2023-01-27T02:05:29.937Z,93878.00
2023-01-27T02:08:13.437Z,93875.78
2023-01-27T02:10:40.147Z,93870.59
2023-01-27T02:13:06.899Z,93864.75
2023-01-27T02:15:33.744Z,93871.13
2023-01-27T02:18:00.977Z,93862.16
2023-01-27T02:20:47.923Z,93867.44
2023-01-27T02:23:39.412Z,93872.72
2023-01-27T02:26:08.940Z,93871.91
2023-01-27T02:28:35.682Z,93867.69
2023-01-27T02:31:02.773Z,93862.31
2023-01-27T02:33:29.734Z,93846.03
2023-01-27T02:36:01.907Z,93860.34
2023-01-27T02:38:31.845Z,93861.94
2023-01-27T02:41:05.066Z,93870.25
2023-01-27T02:43:31.758Z,93863.16
2023-01-27T02:45:58.492Z,93864.41
2023-01-27T02:48:25.229Z,93867.31
2023-01-27T02:50:51.982Z,93867.34
2023-01-27T02:53:18.639Z,93857.81
2023-01-27T02:55:45.329Z,93869.59
2023-01-27T02:58:12.069Z,93870.25
2023-01-27T03:00:38.806Z,93872.78
2023-01-27T03:03:05.613Z,93868.78
2023-01-27T03:05:32.301Z,93879.13
2023-01-27T03:07:59.012Z,93880.22
2023-01-27T03:10:25.786Z,93884.50
2023-01-27T03:12:52.584Z,93866.00
2023-01-27T03:15:37.903Z,93872.13
2023-01-27T03:18:16.345Z,93868.03
2023-01-27T03:20:48.216Z,93878.50
2023-01-27T03:23:16.930Z,93879.16
2023-01-27T03:25:48.473Z,93874.63
2023-01-27T03:28:15.609Z,93879.69
2023-01-27T03:30:42.506Z,93883.19
2023-01-27T03:33:09.355Z,93886.81
2023-01-27T03:35:46.651Z,93878.59
2023-01-27T03:38:33.792Z,93877.13
2023-01-27T03:41:22.554Z,93880.75
2023-01-27T03:44:08.021Z,93878.09
2023-01-27T03:46:34.754Z,93875.41
2023-01-27T03:49:01.566Z,93863.97
2023-01-27T03:51:28.363Z,93878.44
2023-01-27T03:53:55.113Z,93871.38
2023-01-27T03:56:22.551Z,93869.56
2023-01-27T03:58:50.744Z,93875.81
2023-01-27T04:01:22.125Z,93876.41
2023-01-27T04:04:08.754Z,93875.66
2023-01-27T04:07:14.143Z,93873.94
2023-01-27T04:09:41.003Z,93872.31
2023-01-27T04:12:08.247Z,93874.81
2023-01-27T04:14:42.256Z,93868.78
2023-01-27T04:17:17.190Z,93875.69
2023-01-27T04:19:44.045Z,93867.63
2023-01-27T04:22:12.008Z,93877.22
2023-01-27T04:24:38.856Z,93882.13
2023-01-27T04:27:11.649Z,93877.84
2023-01-27T04:29:43.183Z,93876.13
2023-01-27T04:32:12.156Z,93880.00
2023-01-27T04:34:39.485Z,93869.09
2023-01-27T04:37:07.774Z,93876.41
2023-01-27T04:39:35.010Z,93877.41
2023-01-27T04:42:01.783Z,93869.06
2023-01-27T04:44:28.575Z,93873.34
2023-01-27T04:46:55.341Z,93869.63
2023-01-27T04:49:22.612Z,93860.25
2023-01-27T04:51:49.433Z,93864.34
2023-01-27T04:54:16.242Z,93870.69
2023-01-27T04:56:55.499Z,93870.97
2023-01-27T04:59:22.304Z,93881.31
2023-01-27T05:01:49.199Z,93857.91
2023-01-27T05:04:15.963Z,93862.84
2023-01-27T05:06:42.736Z,93858.03
2023-01-27T05:09:10.094Z,93861.03
2023-01-27T05:11:36.805Z,93854.84
2023-01-27T05:14:03.671Z,93866.41
2023-01-27T05:16:30.482Z,93858.84
2023-01-27T05:18:57.449Z,93855.06
2023-01-27T05:21:28.348Z,93855.94
2023-01-27T05:23:55.304Z,93855.00
2023-01-27T05:26:25.014Z,93856.75
2023-01-27T05:28:52.782Z,93861.81
2023-01-27T05:31:21.908Z,93856.84
2023-01-27T05:33:53.592Z,93862.59
2023-01-27T05:36:22.174Z,93862.88
2023-01-27T05:38:49.433Z,93853.72
2023-01-27T05:41:17.617Z,93869.03
2023-01-27T05:43:46.354Z,93874.50
2023-01-27T05:46:14.269Z,93874.69
2023-01-27T05:48:52.768Z,93870.22
2023-01-27T05:51:21.741Z,93875.16
2023-01-27T05:53:49.235Z,93878.94
2023-01-27T05:56:18.877Z,93878.84
2023-01-27T05:58:45.777Z,93877.63
2023-01-27T06:01:21.138Z,93888.00
2023-01-27T06:03:48.242Z,93889.75
2023-01-27T06:06:17.481Z,93895.81
2023-01-27T06:08:45.785Z,93892.06
2023-01-27T06:11:12.628Z,93897.78
2023-01-27T06:13:39.496Z,93893.38
2023-01-27T06:16:09.186Z,93882.69
2023-01-27T06:18:36.558Z,93897.94
2023-01-27T06:21:04.825Z,93898.88
2023-01-27T06:23:31.891Z,93892.34
2023-01-27T06:26:03.696Z,93895.34
2023-01-27T06:28:30.640Z,93889.53
2023-01-27T06:31:08.032Z,93895.84
2023-01-27T06:33:35.220Z,93897.16
2023-01-27T06:36:16.609Z,93893.38
2023-01-27T06:38:43.678Z,93893.16
2023-01-27T06:41:10.797Z,93894.31
2023-01-27T06:43:37.799Z,93890.56
2023-01-27T06:46:06.043Z,93891.63
2023-01-27T06:48:33.428Z,93893.44
2023-01-27T06:51:00.393Z,93899.97
2023-01-27T06:53:27.457Z,93903.84
2023-01-27T06:55:59.014Z,93910.00
2023-01-27T06:58:26.051Z,93915.22
2023-01-27T07:00:52.910Z,93916.84
2023-01-27T07:03:20.118Z,93915.53
2023-01-27T07:05:46.915Z,93917.47
2023-01-27T07:08:13.763Z,93918.69
2023-01-27T07:10:40.795Z,93926.03
2023-01-27T07:13:11.435Z,93920.16
2023-01-27T07:15:38.558Z,93917.31
2023-01-27T07:18:05.557Z,93921.16
2023-01-27T07:20:33.150Z,93925.50
2023-01-27T07:23:01.133Z,93930.00
2023-01-27T07:25:29.014Z,93935.91
2023-01-27T07:27:58.376Z,93924.63
2023-01-27T07:30:25.842Z,93931.31
2023-01-27T07:32:52.843Z,93939.91
2023-01-27T07:35:19.674Z,93948.56
2023-01-27T07:37:46.428Z,93940.28
2023-01-27T07:40:16.870Z,93942.75
2023-01-27T07:42:43.910Z,93950.19
2023-01-27T07:45:10.943Z,93953.38
2023-01-27T07:47:37.758Z,93944.09
2023-01-27T07:50:04.775Z,93949.16
2023-01-27T07:52:31.640Z,93947.56
2023-01-27T07:54:58.372Z,93946.84
2023-01-27T07:57:25.114Z,93941.00
2023-01-27T07:59:55.759Z,93947.38
2023-01-27T08:02:23.836Z,93948.28
2023-01-27T08:04:53.400Z,93957.63
2023-01-27T08:07:21.039Z,93952.81
2023-01-27T08:09:47.967Z,93961.28
2023-01-27T08:12:14.798Z,93958.13
2023-01-27T08:14:41.509Z,93957.56
2023-01-27T08:17:08.363Z,93961.56
2023-01-27T08:19:35.037Z,93963.03
2023-01-27T08:22:01.984Z,93963.75
2023-01-27T08:24:28.824Z,93962.84
2023-01-27T08:26:55.958Z,93967.41
2023-01-27T08:29:22.711Z,93964.38
2023-01-27T08:31:49.588Z,93962.88
2023-01-27T08:34:17.192Z,93963.97
2023-01-27T08:36:44.154Z,93969.06
2023-01-27T08:39:11.662Z,93973.06
2023-01-27T08:41:39.026Z,93966.25
2023-01-27T08:44:07.195Z,93969.53
2023-01-27T08:46:34.297Z,93984.88
2023-01-27T08:49:01.063Z,93985.53
2023-01-27T08:51:28.457Z,93993.97
2023-01-27T08:53:55.236Z,93989.44
2023-01-27T08:56:22.011Z,93977.34
2023-01-27T08:58:48.973Z,93977.06
2023-01-27T09:01:16.694Z,93971.97
2023-01-27T09:03:43.531Z,93979.91
2023-01-27T09:06:11.748Z,93983.53
2023-01-27T09:08:39.187Z,93984.88
2023-01-27T09:11:11.455Z,93986.25
2023-01-27T09:13:38.376Z,93984.06
2023-01-27T09:16:05.514Z,93992.06
2023-01-27T09:18:32.747Z,93984.50
2023-01-27T09:21:04.511Z,93979.59
2023-01-27T09:23:31.652Z,93974.91
2023-01-27T09:25:58.510Z,93989.25
2023-01-27T09:28:25.309Z,93991.13
2023-01-27T09:30:52.092Z,93995.72
2023-01-27T09:33:18.929Z,94001.97
2023-01-27T09:35:59.907Z,93995.84
2023-01-27T09:38:29.038Z,93994.50
2023-01-27T09:41:08.367Z,94002.63
2023-01-27T09:44:09.890Z,94004.31
2023-01-27T09:47:10.643Z,94009.28
2023-01-27T09:49:53.889Z,94020.59
2023-01-27T09:52:47.152Z,94016.19
2023-01-27T09:55:27.828Z,94021.41
2023-01-27T09:57:57.481Z,94021.06
2023-01-27T10:00:33.105Z,94024.31
2023-01-27T10:03:18.529Z,94025.72
2023-01-27T10:06:04.136Z,94013.38
2023-01-27T10:08:48.781Z,94023.19
2023-01-27T10:11:37.515Z,94028.50
2023-01-27T10:14:17.791Z,94027.41
2023-01-27T10:17:19.800Z,94026.34
2023-01-27T10:20:05.773Z,94020.13
2023-01-27T10:23:03.819Z,94013.91
2023-01-27T10:25:48.751Z,94023.88
2023-01-27T10:28:18.571Z,94021.31
2023-01-27T10:31:27.359Z,94017.59
2023-01-27T10:33:55.155Z,94014.91
2023-01-27T10:36:41.199Z,94004.41
2023-01-27T10:39:26.748Z,94001.53
2023-01-27T10:42:28.831Z,94005.69
2023-01-27T10:45:16.669Z,94002.00
2023-01-27T10:47:46.290Z,93998.97
2023-01-27T10:50:20.369Z,94000.09
2023-01-27T10:53:04.407Z,94001.53
2023-01-27T10:55:40.781Z,93995.47
2023-01-27T10:58:17.496Z,93985.91
2023-01-27T11:01:20.400Z,93985.88
2023-01-27T11:03:41.325Z,93991.47
2023-01-27T11:06:12.679Z,93994.81
2023-01-27T11:08:41.469Z,93997.22
2023-01-27T11:11:28.137Z,94003.44
2023-01-27T11:14:04.128Z,93992.09
2023-01-27T11:16:36.129Z,93991.63
2023-01-27T11:19:14.688Z,93988.75
2023-01-27T11:21:41.886Z,93989.72
2023-01-27T11:24:27.443Z,93988.91
2023-01-27T11:27:00.988Z,93987.19
2023-01-27T11:29:30.916Z,93980.13
2023-01-27T11:32:01.410Z,93978.84
2023-01-27T11:34:28.188Z,93972.31
2023-01-27T11:36:54.975Z,93975.63
2023-01-27T11:39:21.837Z,93977.34
2023-01-27T11:41:53.826Z,93952.59
2023-01-27T11:44:24.538Z,93958.97
2023-01-27T11:46:52.068Z,93969.00
2023-01-27T11:49:31.389Z,93963.44
2023-01-27T11:52:06.444Z,93969.53
2023-01-27T11:54:42.213Z,93962.69
2023-01-27T11:57:19.163Z,93961.75
2023-01-27T11:59:46.067Z,93959.50
2023-01-27T12:02:31.159Z,93957.22
2023-01-27T12:05:04.164Z,93958.19
2023-01-27T12:07:56.783Z,93957.06
2023-01-27T12:10:35.598Z,93953.22
2023-01-27T12:13:10.281Z,93964.72
2023-01-27T12:15:38.146Z,93960.25
2023-01-27T12:18:15.815Z,93968.31
2023-01-27T12:20:45.006Z,93958.88
2023-01-27T12:23:27.849Z,93953.59
2023-01-27T12:26:03.948Z,93957.59
2023-01-27T12:28:33.774Z,93958.19
2023-01-27T12:31:27.833Z,93967.94
2023-01-27T12:34:06.948Z,93976.56
2023-01-27T12:36:43.368Z,93970.16
2023-01-27T12:39:39.540Z,93968.88
2023-01-27T12:42:06.757Z,93959.94
2023-01-27T12:44:42.009Z,93963.94
2023-01-27T12:47:23.475Z,93970.69
2023-01-27T12:49:50.307Z,93963.06
2023-01-27T12:52:21.784Z,93970.25
2023-01-27T12:54:51.338Z,93968.94
2023-01-27T12:57:21.137Z,93969.72
2023-01-27T12:59:53.029Z,93957.88
2023-01-27T13:02:24.730Z,93952.19
2023-01-27T13:04:59.888Z,93953.63
2023-01-27T13:07:45.768Z,93959.41
2023-01-27T13:10:22.401Z,93971.34
2023-01-27T13:12:49.352Z,93969.75
2023-01-27T13:15:18.887Z,93966.56
2023-01-27T13:17:59.426Z,93956.78
2023-01-27T13:20:42.784Z,93958.88
2023-01-27T13:23:19.565Z,93956.63
2023-01-27T13:26:04.792Z,93960.31
2023-01-27T13:28:54.361Z,93956.31
2023-01-27T13:31:43.468Z,93956.47
2023-01-27T13:34:25.105Z,93960.63
2023-01-27T13:37:03.649Z,93962.88
2023-01-27T13:40:06.371Z,93961.09
2023-01-27T13:42:41.289Z,93968.47
2023-01-27T13:45:19.128Z,93965.78
2023-01-27T13:48:05.315Z,93963.38
2023-01-27T13:50:36.416Z,93959.06
2023-01-27T13:53:04.311Z,93967.53
2023-01-27T13:56:08.647Z,93958.75
2023-01-27T13:59:06.488Z,93965.94
2023-01-27T14:01:42.437Z,93963.56
2023-01-27T14:04:39.090Z,93971.69
2023-01-27T14:07:27.604Z,93973.63
2023-01-27T14:10:03.879Z,93970.88
2023-01-27T14:12:38.169Z,93970.56
2023-01-27T14:15:26.477Z,93966.91
2023-01-27T14:18:02.690Z,93959.06
2023-01-27T14:20:59.684Z,93967.56
2023-01-27T14:23:41.055Z,93959.72
2023-01-27T14:26:33.178Z,93955.56
2023-01-27T14:29:31.165Z,93958.28
2023-01-27T14:32:17.358Z,93960.66
2023-01-27T14:34:56.364Z,93945.38
2023-01-27T14:37:28.056Z,93944.72
2023-01-27T14:40:12.162Z,93946.94
2023-01-27T14:43:11.681Z,93947.88
2023-01-27T14:45:41.246Z,93941.66
2023-01-27T14:48:13.978Z,93934.03
2023-01-27T14:50:50.185Z,93942.47
2023-01-27T14:53:38.599Z,93938.66
2023-01-27T14:56:25.541Z,93939.91
2023-01-27T14:58:57.213Z,93936.06
2023-01-27T15:01:36.870Z,93936.72
2023-01-27T15:04:12.583Z,93938.94
2023-01-27T15:07:03.792Z,93936.53
2023-01-27T15:09:48.759Z,93923.31
2023-01-27T15:12:27.348Z,93929.72
2023-01-27T15:14:55.107Z,93934.69
2023-01-27T15:17:54.165Z,93937.53
2023-01-27T15:20:30.875Z,93940.22
2023-01-27T15:23:12.344Z,93940.69
2023-01-27T15:25:43.522Z,93939.25
2023-01-27T15:28:15.245Z,93942.91
2023-01-27T15:31:17.190Z,93942.09
2023-01-27T15:34:15.683Z,93945.00
2023-01-27T15:37:02.525Z,93952.47
2023-01-27T15:39:40.876Z,93949.88
2023-01-27T15:42:11.498Z,93946.81
2023-01-27T15:45:03.006Z,93944.78
2023-01-27T15:47:32.674Z,93951.63
2023-01-27T15:50:20.462Z,93950.19
2023-01-27T15:52:49.588Z,93956.84
2023-01-27T15:55:33.670Z,93959.28
2023-01-27T15:58:26.686Z,93961.66
2023-01-27T16:00:55.610Z,93960.56
2023-01-27T16:03:37.953Z,93964.66
2023-01-27T16:06:09.703Z,93963.38
2023-01-27T16:08:52.559Z,93965.97
2023-01-27T16:11:28.425Z,93969.13
2023-01-27T16:14:11.629Z,93966.28
2023-01-27T16:16:50.785Z,93966.50
2023-01-27T16:19:41.510Z,93953.09
2023-01-27T16:22:19.035Z,93969.06
2023-01-27T16:25:04.377Z,93953.25
2023-01-27T16:27:52.239Z,93968.72
2023-01-27T16:30:25.705Z,93976.28
2023-01-27T16:33:04.375Z,93978.19
2023-01-27T16:35:41.080Z,93975.63
2023-01-27T16:38:20.082Z,93982.31
2023-01-27T16:40:51.546Z,93992.81
2023-01-27T16:43:21.706Z,93989.66
2023-01-27T16:45:50.863Z,93987.88
2023-01-27T16:48:35.931Z,93990.28
2023-01-27T16:51:23.459Z,93980.41
2023-01-27T16:53:52.282Z,93986.13
2023-01-27T16:56:27.831Z,93970.84
2023-01-27T16:59:02.697Z,93986.31
2023-01-27T17:01:54.276Z,93992.13
2023-01-27T17:04:28.628Z,93991.25
2023-01-27T17:07:04.671Z,93988.03
2023-01-27T17:09:32.775Z,93988.44
2023-01-27T17:11:59.815Z,93987.19
2023-01-27T17:14:46.794Z,93984.75
2023-01-27T17:17:19.399Z,93976.75
2023-01-27T17:19:52.207Z,93978.06
2023-01-27T17:22:22.789Z,93995.16
2023-01-27T17:24:56.974Z,93975.97
2023-01-27T17:27:30.266Z,93978.00
2023-01-27T17:30:04.688Z,93998.00
2023-01-27T17:32:34.642Z,94000.13
2023-01-27T17:35:05.502Z,93988.41
2023-01-27T17:37:32.828Z,93996.13
2023-01-27T17:40:01.687Z,93995.50
2023-01-27T17:42:33.526Z,94009.09
2023-01-27T17:45:28.194Z,94006.81
2023-01-27T17:47:58.923Z,94004.22
2023-01-27T17:50:36.540Z,94015.31
2023-01-27T17:53:06.808Z,94011.34
2023-01-27T17:55:33.720Z,94009.78
2023-01-27T17:58:11.498Z,94016.78
2023-01-27T18:00:40.363Z,94009.28
2023-01-27T18:03:14.740Z,94018.66
2023-01-27T18:05:44.732Z,94024.66
2023-01-27T18:08:11.945Z,94028.41
2023-01-27T18:10:41.383Z,94031.94
2023-01-27T18:13:28.379Z,94024.28
2023-01-27T18:16:00.908Z,94038.09
2023-01-27T18:18:32.825Z,94046.22
2023-01-27T18:20:59.604Z,94042.13
2023-01-27T18:23:32.425Z,94036.19
2023-01-27T18:26:19.160Z,94046.09
2023-01-27T18:28:50.176Z,94053.50
2023-01-27T18:31:23.988Z,94059.06
2023-01-27T18:34:20.239Z,94061.66
2023-01-27T18:37:08.723Z,94053.88
2023-01-27T18:39:38.048Z,94054.13
2023-01-27T18:42:13.266Z,94062.69
2023-01-27T18:44:40.068Z,94058.03
2023-01-27T18:47:19.061Z,94058.19
2023-01-27T18:49:52.041Z,94067.38
2023-01-27T18:52:18.862Z,94071.19
2023-01-27T18:54:45.684Z,94073.13
2023-01-27T18:57:12.539Z,94075.94
2023-01-27T18:59:40.040Z,94077.09
2023-01-27T19:02:15.390Z,94075.19
2023-01-27T19:04:42.561Z,94076.00
2023-01-27T19:07:16.858Z,94075.28
2023-01-27T19:09:44.904Z,94081.88
2023-01-27T19:12:11.799Z,94080.00
2023-01-27T19:14:41.309Z,94079.19
2023-01-27T19:17:17.397Z,94081.69
2023-01-27T19:19:44.837Z,94084.72
2023-01-27T19:22:19.654Z,94086.56
2023-01-27T19:24:46.912Z,94081.25
2023-01-27T19:27:21.637Z,94091.38
2023-01-27T19:29:48.786Z,94079.88
2023-01-27T19:32:15.612Z,94086.41
2023-01-27T19:34:42.727Z,94072.66
2023-01-27T19:37:18.548Z,94084.97
2023-01-27T19:39:47.113Z,94076.00
2023-01-27T19:42:16.676Z,94087.94
2023-01-27T19:44:43.668Z,94095.94
2023-01-27T19:47:12.935Z,94087.50
2023-01-27T19:49:40.209Z,94098.84
2023-01-27T19:52:07.149Z,94102.22
2023-01-27T19:54:34.661Z,94092.22
2023-01-27T19:57:01.942Z,94093.69
2023-01-27T19:59:28.933Z,94103.50
2023-01-27T20:01:57.073Z,94085.75
2023-01-27T20:04:24.018Z,94098.50
2023-01-27T20:06:51.611Z,94102.78
2023-01-27T20:09:18.466Z,94094.56
2023-01-27T20:11:46.226Z,94108.16
2023-01-27T20:14:15.831Z,94108.28
2023-01-27T20:16:42.986Z,94102.41
2023-01-27T20:19:11.757Z,94097.03
2023-01-27T20:21:38.536Z,94104.16
2023-01-27T20:24:05.717Z,94097.41
2023-01-27T20:26:33.131Z,94116.88
2023-01-27T20:29:00.122Z,94118.41
2023-01-27T20:31:27.028Z,94111.72
2023-01-27T20:33:53.849Z,94106.63
2023-01-27T20:36:22.636Z,94121.63
2023-01-27T20:38:49.846Z,94125.41
2023-01-27T20:41:20.380Z,94127.88
2023-01-27T20:43:47.344Z,94121.41
2023-01-27T20:46:18.558Z,94118.41
2023-01-27T20:48:45.336Z,94115.28
2023-01-27T20:51:14.475Z,94123.00
2023-01-27T20:53:45.611Z,94114.41
2023-01-27T20:56:31.096Z,94126.34
2023-01-27T20:58:57.890Z,94132.75
2023-01-27T21:01:25.156Z,94130.84
2023-01-27T21:03:52.167Z,94132.53
2023-01-27T21:06:20.187Z,94139.88
2023-01-27T21:08:48.341Z,94121.69
2023-01-27T21:11:18.358Z,94130.78
2023-01-27T21:13:45.370Z,94132.09
2023-01-27T21:16:13.872Z,94130.78
2023-01-27T21:18:41.004Z,94124.22
2023-01-27T21:21:07.675Z,94130.34
2023-01-27T21:23:35.074Z,94137.34
2023-01-27T21:26:07.322Z,94141.47
2023-01-27T21:28:34.074Z,94134.94
2023-01-27T21:31:08.609Z,94129.25
2023-01-27T21:33:36.435Z,94120.09
2023-01-27T21:36:04.077Z,94121.78
2023-01-27T21:38:31.892Z,94129.41
2023-01-27T21:41:10.963Z,94132.44
2023-01-27T21:43:56.417Z,94132.44
2023-01-27T21:46:23.449Z,94131.34
2023-01-27T21:48:50.258Z,94129.13
2023-01-27T21:51:16.989Z,94117.69
2023-01-27T21:53:43.572Z,94121.81
2023-01-27T21:56:11.149Z,94131.66
2023-01-27T21:58:37.806Z,94128.81
2023-01-27T22:01:08.288Z,94135.50
2023-01-27T22:03:35.341Z,94131.66
2023-01-27T22:06:09.256Z,94135.16
2023-01-27T22:08:36.859Z,94134.34
2023-01-27T22:11:09.120Z,94141.88
2023-01-27T22:13:37.819Z,94138.84
2023-01-27T22:16:04.913Z,94145.53
2023-01-27T22:18:31.688Z,94151.78
2023-01-27T22:21:01.264Z,94148.19
2023-01-27T22:23:28.063Z,94146.25
2023-01-27T22:25:54.888Z,94146.69
2023-01-27T22:28:23.219Z,94149.31
2023-01-27T22:30:50.516Z,94149.97
2023-01-27T22:33:17.261Z,94152.78
2023-01-27T22:35:44.082Z,94156.75
2023-01-27T22:38:10.896Z,94154.47
2023-01-27T22:40:37.576Z,94154.09
2023-01-27T22:43:09.397Z,94152.06
2023-01-27T22:45:39.779Z,94149.38
2023-01-27T22:48:09.002Z,94143.28
2023-01-27T22:50:36.743Z,94144.75
2023-01-27T22:53:05.498Z,94149.91
2023-01-27T22:55:32.733Z,94146.41
2023-01-27T22:57:59.522Z,94147.53
2023-01-27T23:00:26.195Z,94143.53
2023-01-27T23:02:52.903Z,94137.94
2023-01-27T23:05:19.665Z,94143.69
2023-01-27T23:07:47.612Z,94143.59
2023-01-27T23:10:14.676Z,94144.13
2023-01-27T23:12:41.380Z,94152.34
2023-01-27T23:15:08.481Z,94146.03
2023-01-27T23:17:35.114Z,94147.34
2023-01-27T23:20:02.131Z,94144.81
2023-01-27T23:22:28.921Z,94145.81
2023-01-27T23:24:55.622Z,94143.13
2023-01-27T23:27:22.278Z,94139.13
2023-01-27T23:29:48.983Z,94145.81
2023-01-27T23:32:15.769Z,94136.72
2023-01-27T23:34:42.590Z,94148.75
2023-01-27T23:37:09.240Z,94149.81
2023-01-27T23:39:36.017Z,94147.00
2023-01-27T23:42:02.686Z,94142.56
2023-01-27T23:44:29.316Z,94140.16
2023-01-27T23:46:55.930Z,94138.03
2023-01-27T23:49:22.576Z,94137.59
2023-01-27T23:51:49.255Z,94142.63
2023-01-27T23:54:15.966Z,94137.88
2023-01-27T23:56:42.583Z,94148.47
2023-01-27T23:59:11.878Z,94146.88
